Kingsport, TN

11:37 AM EDT on July 06, 2015 (GMT -0400)
Near Meadowview | | Change Station
CLOSE
Current Station
Personal Weather Station
Location: Kingsport, TN
Elevation: 1302 ft
Nearby Weather Stations

Elev 1302 ft 36.51 °N, 82.57 °W | Updated 9 minutes ago

Overcast
Overcast
77.2 °F
Feels Like 79 °F
N
0.0
Wind Variable Wind from West

Today
High -- | Low -- °F
--% Chance of Precip.
Yesterday
High -- | Low -- °F
Precip. -- in
6:18 AM 8:51 PM
Waning Gibbous, 74% visible
Pressure 30.11 in
Visibility 9.0 miles
Clouds Few 1800 ft
Scattered Clouds 2300 ft
Mostly Cloudy 3000 ft
Heat Index 79 °F
Dew Point 72 °F
Humidity 84%
Rainfall 0.10 in
Snow Depth Not available.
UV 4 out of 12
Pollen .50 out of 12
Air Quality Not available.
Flu Activity Not available.
METAR KTRI 061453Z 24007KT 9SM FEW018 SCT023 BKN030 24/19 A3018 RMK AO2 SLP196 T02390194 50003

More Conditions Fewer Conditions

Pressure 30.11 in
Visibility 9.0 miles
Clouds Few 1800 ft
Scattered Clouds 2300 ft
Mostly Cloudy 3000 ft
Heat Index 79 °F
Dew Point 72 °F
Humidity 84%
Rainfall 0.10 in
Snow Depth Not available.
UV 4 out of 12
Pollen .50 out of 12
Air Quality Not available.
Flu Activity Not available.
METAR KTRI 061453Z 24007KT 9SM FEW018 SCT023 BKN030 24/19 A3018 RMK AO2 SLP196 T02390194 50003

More Conditions Fewer Conditions

10-Day Weather Forecast

×

Almanac

Astronomy

Jul. 06, 2015 Rise Set
Actual Time
Civil Twilight
Nautical Twilight
Astronomical Twilight
Moon
Length of Visible Light
Length of Day
Tomorrow will be .
, % of the Moon is Illuminated

Today's Extremes

State Highs State Lows

Community

WunderPhotos

Upload Photos

1,835,573 photos uploaded!

WunderBlogs® & News

Nearby

Air Quality

  Air Quality AQ Index Pollutant
Not available.

Snow Depth

Station Depth Elevation

Earthquake Activity

City Distance Mag. Time & Date
Minimum magnitude displayed is 2.5.

Coastal Water Temperatures

Place Temperature

Stations

Nearby Weather Stations

Station Location Temp. Windchill Dew Point Humidity Wind Precip. Elev Updated Type